sensor_id;sensor_type;location;lat;lon;timestamp;P1;durP1;ratioP1;P2;durP2;ratioP2
9150;SDS011;4610;50.006;7.490;2022-09-29T00:02:19;2.00;;;1.50;;
9150;SDS011;4610;50.006;7.490;2022-09-29T00:04:46;1.60;;;1.50;;
9150;SDS011;4610;50.006;7.490;2022-09-29T00:07:13;2.17;;;1.53;;
9150;SDS011;4610;50.006;7.490;2022-09-29T00:09:41;2.90;;;1.80;;
9150;SDS011;4610;50.006;7.490;2022-09-29T00:12:07;2.40;;;1.30;;
9150;SDS011;4610;50.006;7.490;2022-09-29T00:14:34;2.27;;;1.50;;
9150;SDS011;4610;50.006;7.490;2022-09-29T00:17:01;3.53;;;1.50;;
9150;SDS011;4610;50.006;7.490;2022-09-29T00:19:28;6.63;;;1.90;;
9150;SDS011;4610;50.006;7.490;2022-09-29T00:21:57;3.33;;;1.80;;
9150;SDS011;4610;50.006;7.490;2022-09-29T00:24:24;3.67;;;1.90;;
9150;SDS011;4610;50.006;7.490;2022-09-29T00:26:52;3.77;;;1.77;;
9150;SDS011;4610;50.006;7.490;2022-09-29T00:29:19;2.03;;;1.40;;
9150;SDS011;4610;50.006;7.490;2022-09-29T00:31:46;2.50;;;1.80;;
9150;SDS011;4610;50.006;7.490;2022-09-29T00:34:13;3.00;;;1.67;;
9150;SDS011;4610;50.006;7.490;2022-09-29T00:36:39;2.83;;;1.60;;
9150;SDS011;4610;50.006;7.490;2022-09-29T00:39:06;1.93;;;1.40;;
9150;SDS011;4610;50.006;7.490;2022-09-29T00:41:34;6.33;;;1.53;;
9150;SDS011;4610;50.006;7.490;2022-09-29T00:44:03;3.30;;;1.70;;
9150;SDS011;4610;50.006;7.490;2022-09-29T00:46:39;1.57;;;1.47;;
9150;SDS011;4610;50.006;7.490;2022-09-29T00:49:12;1.80;;;1.50;;
9150;SDS011;4610;50.006;7.490;2022-09-29T00:51:45;8.80;;;2.00;;
9150;SDS011;4610;50.006;7.490;2022-09-29T00:54:15;7.73;;;2.13;;
9150;SDS011;4610;50.006;7.490;2022-09-29T00:56:42;2.57;;;1.93;;
9150;SDS011;4610;50.006;7.490;2022-09-29T00:59:13;4.60;;;1.80;;
9150;SDS011;4610;50.006;7.490;2022-09-29T01:01:45;9.23;;;1.90;;
9150;SDS011;4610;50.006;7.490;2022-09-29T01:04:13;4.30;;;1.87;;
9150;SDS011;4610;50.006;7.490;2022-09-29T01:06:44;2.73;;;1.70;;
9150;SDS011;4610;50.006;7.490;2022-09-29T01:09:14;3.90;;;1.60;;
9150;SDS011;4610;50.006;7.490;2022-09-29T01:11:44;2.10;;;1.70;;
9150;SDS011;4610;50.006;7.490;2022-09-29T01:14:13;1.50;;;1.30;;
9150;SDS011;4610;50.006;7.490;2022-09-29T01:16:40;1.93;;;1.47;;
9150;SDS011;4610;50.006;7.490;2022-09-29T01:19:08;4.67;;;1.67;;
9150;SDS011;4610;50.006;7.490;2022-09-29T01:21:42;5.43;;;1.60;;
9150;SDS011;4610;50.006;7.490;2022-09-29T01:27:30;9.33;;;1.77;;
9150;SDS011;4610;50.006;7.490;2022-09-29T01:30:19;3.90;;;1.43;;
9150;SDS011;4610;50.006;7.490;2022-09-29T01:32:58;3.07;;;1.90;;
9150;SDS011;4610;50.006;7.490;2022-09-29T01:35:39;4.77;;;1.97;;
9150;SDS011;4610;50.006;7.490;2022-09-29T01:38:14;4.50;;;2.00;;
9150;SDS011;4610;50.006;7.490;2022-09-29T01:40:53;6.93;;;1.73;;
9150;SDS011;4610;50.006;7.490;2022-09-29T01:43:30;3.70;;;1.70;;
9150;SDS011;4610;50.006;7.490;2022-09-29T01:46:00;5.80;;;1.50;;
9150;SDS011;4610;50.006;7.490;2022-09-29T01:48:32;2.97;;;1.50;;
9150;SDS011;4610;50.006;7.490;2022-09-29T01:51:02;4.37;;;2.10;;
9150;SDS011;4610;50.006;7.490;2022-09-29T01:53:33;4.17;;;1.50;;
9150;SDS011;4610;50.006;7.490;2022-09-29T01:56:04;2.00;;;1.40;;
9150;SDS011;4610;50.006;7.490;2022-09-29T01:58:36;5.63;;;1.60;;
9150;SDS011;4610;50.006;7.490;2022-09-29T02:01:08;2.17;;;1.60;;
9150;SDS011;4610;50.006;7.490;2022-09-29T02:03:39;2.60;;;1.70;;
9150;SDS011;4610;50.006;7.490;2022-09-29T02:06:09;6.83;;;1.80;;
9150;SDS011;4610;50.006;7.490;2022-09-29T02:08:41;7.23;;;1.90;;
9150;SDS011;4610;50.006;7.490;2022-09-29T02:11:13;2.73;;;1.57;;
9150;SDS011;4610;50.006;7.490;2022-09-29T02:13:42;4.07;;;1.83;;
9150;SDS011;4610;50.006;7.490;2022-09-29T02:16:15;4.97;;;1.70;;
9150;SDS011;4610;50.006;7.490;2022-09-29T02:18:47;1.70;;;1.60;;
9150;SDS011;4610;50.006;7.490;2022-09-29T02:21:17;2.03;;;1.70;;
9150;SDS011;4610;50.006;7.490;2022-09-29T02:23:44;2.73;;;1.67;;
9150;SDS011;4610;50.006;7.490;2022-09-29T02:26:11;6.70;;;1.57;;
9150;SDS011;4610;50.006;7.490;2022-09-29T02:28:39;1.97;;;1.60;;
9150;SDS011;4610;50.006;7.490;2022-09-29T02:31:07;2.47;;;1.80;;
9150;SDS011;4610;50.006;7.490;2022-09-29T02:33:34;3.23;;;1.87;;
9150;SDS011;4610;50.006;7.490;2022-09-29T02:36:05;3.77;;;1.67;;
9150;SDS011;4610;50.006;7.490;2022-09-29T02:38:42;3.73;;;2.00;;
9150;SDS011;4610;50.006;7.490;2022-09-29T02:41:19;2.70;;;1.60;;
9150;SDS011;4610;50.006;7.490;2022-09-29T02:44:05;3.57;;;1.80;;
9150;SDS011;4610;50.006;7.490;2022-09-29T02:46:49;1.83;;;1.67;;
9150;SDS011;4610;50.006;7.490;2022-09-29T02:49:30;3.00;;;1.77;;
9150;SDS011;4610;50.006;7.490;2022-09-29T02:52:09;1.60;;;1.40;;
9150;SDS011;4610;50.006;7.490;2022-09-29T02:54:48;2.60;;;1.70;;
9150;SDS011;4610;50.006;7.490;2022-09-29T02:57:25;2.03;;;1.80;;
9150;SDS011;4610;50.006;7.490;2022-09-29T03:00:00;2.10;;;1.70;;
9150;SDS011;4610;50.006;7.490;2022-09-29T03:02:33;7.67;;;2.10;;
9150;SDS011;4610;50.006;7.490;2022-09-29T03:05:02;2.50;;;1.90;;
9150;SDS011;4610;50.006;7.490;2022-09-29T03:07:31;13.30;;;1.97;;
9150;SDS011;4610;50.006;7.490;2022-09-29T03:09:58;3.47;;;1.60;;
9150;SDS011;4610;50.006;7.490;2022-09-29T03:12:25;9.97;;;2.00;;
9150;SDS011;4610;50.006;7.490;2022-09-29T03:14:52;4.90;;;1.90;;
9150;SDS011;4610;50.006;7.490;2022-09-29T03:17:18;9.43;;;2.20;;
9150;SDS011;4610;50.006;7.490;2022-09-29T03:19:45;2.63;;;1.83;;
9150;SDS011;4610;50.006;7.490;2022-09-29T03:22:12;5.90;;;2.20;;
9150;SDS011;4610;50.006;7.490;2022-09-29T03:24:40;1.87;;;1.67;;
9150;SDS011;4610;50.006;7.490;2022-09-29T03:27:07;3.83;;;1.67;;
9150;SDS011;4610;50.006;7.490;2022-09-29T03:29:35;6.47;;;2.20;;
9150;SDS011;4610;50.006;7.490;2022-09-29T03:32:02;5.57;;;1.90;;
9150;SDS011;4610;50.006;7.490;2022-09-29T03:34:29;3.97;;;2.20;;
9150;SDS011;4610;50.006;7.490;2022-09-29T03:36:56;6.03;;;2.13;;
9150;SDS011;4610;50.006;7.490;2022-09-29T03:39:23;5.20;;;1.90;;
9150;SDS011;4610;50.006;7.490;2022-09-29T03:41:52;5.63;;;1.90;;
9150;SDS011;4610;50.006;7.490;2022-09-29T03:44:19;2.90;;;2.03;;
9150;SDS011;4610;50.006;7.490;2022-09-29T03:46:46;3.00;;;1.63;;
9150;SDS011;4610;50.006;7.490;2022-09-29T03:49:13;2.93;;;1.73;;
9150;SDS011;4610;50.006;7.490;2022-09-29T03:51:40;3.87;;;1.73;;
9150;SDS011;4610;50.006;7.490;2022-09-29T03:54:07;4.00;;;1.90;;
9150;SDS011;4610;50.006;7.490;2022-09-29T03:56:35;3.13;;;1.93;;
9150;SDS011;4610;50.006;7.490;2022-09-29T03:59:03;5.23;;;1.70;;
9150;SDS011;4610;50.006;7.490;2022-09-29T04:01:32;2.40;;;1.97;;
9150;SDS011;4610;50.006;7.490;2022-09-29T04:03:59;3.13;;;1.90;;
9150;SDS011;4610;50.006;7.490;2022-09-29T04:06:26;3.80;;;1.80;;
9150;SDS011;4610;50.006;7.490;2022-09-29T04:08:53;5.23;;;2.10;;
9150;SDS011;4610;50.006;7.490;2022-09-29T04:11:20;3.20;;;2.07;;
9150;SDS011;4610;50.006;7.490;2022-09-29T04:13:47;3.13;;;1.90;;
9150;SDS011;4610;50.006;7.490;2022-09-29T04:16:15;3.60;;;2.20;;
9150;SDS011;4610;50.006;7.490;2022-09-29T04:18:41;1.77;;;1.63;;
9150;SDS011;4610;50.006;7.490;2022-09-29T04:21:08;2.70;;;2.10;;
9150;SDS011;4610;50.006;7.490;2022-09-29T04:23:36;3.83;;;1.80;;
9150;SDS011;4610;50.006;7.490;2022-09-29T04:26:03;3.63;;;1.93;;
9150;SDS011;4610;50.006;7.490;2022-09-29T04:28:30;4.07;;;1.80;;
9150;SDS011;4610;50.006;7.490;2022-09-29T04:30:58;2.27;;;1.80;;
9150;SDS011;4610;50.006;7.490;2022-09-29T04:33:26;3.53;;;2.00;;
9150;SDS011;4610;50.006;7.490;2022-09-29T04:35:53;2.03;;;1.83;;
9150;SDS011;4610;50.006;7.490;2022-09-29T04:38:20;2.33;;;2.00;;
9150;SDS011;4610;50.006;7.490;2022-09-29T04:40:47;8.20;;;1.90;;
9150;SDS011;4610;50.006;7.490;2022-09-29T04:43:14;5.57;;;2.03;;
9150;SDS011;4610;50.006;7.490;2022-09-29T04:45:41;2.33;;;1.90;;
9150;SDS011;4610;50.006;7.490;2022-09-29T04:48:08;6.30;;;1.77;;
9150;SDS011;4610;50.006;7.490;2022-09-29T04:50:36;2.13;;;1.70;;
9150;SDS011;4610;50.006;7.490;2022-09-29T04:53:03;9.07;;;1.73;;
9150;SDS011;4610;50.006;7.490;2022-09-29T04:55:30;2.60;;;2.07;;
9150;SDS011;4610;50.006;7.490;2022-09-29T04:57:56;6.13;;;2.00;;
9150;SDS011;4610;50.006;7.490;2022-09-29T05:00:23;7.50;;;1.90;;
9150;SDS011;4610;50.006;7.490;2022-09-29T05:02:50;2.83;;;1.90;;
9150;SDS011;4610;50.006;7.490;2022-09-29T05:05:17;3.30;;;1.90;;
9150;SDS011;4610;50.006;7.490;2022-09-29T05:07:45;2.90;;;1.90;;
9150;SDS011;4610;50.006;7.490;2022-09-29T05:10:12;3.23;;;2.00;;
9150;SDS011;4610;50.006;7.490;2022-09-29T05:12:39;3.93;;;1.90;;
9150;SDS011;4610;50.006;7.490;2022-09-29T05:15:06;2.97;;;2.10;;
9150;SDS011;4610;50.006;7.490;2022-09-29T05:17:34;8.03;;;3.73;;
9150;SDS011;4610;50.006;7.490;2022-09-29T05:20:00;11.57;;;5.23;;
9150;SDS011;4610;50.006;7.490;2022-09-29T05:22:27;5.90;;;3.63;;
9150;SDS011;4610;50.006;7.490;2022-09-29T05:24:55;8.77;;;3.63;;
9150;SDS011;4610;50.006;7.490;2022-09-29T05:27:22;11.10;;;4.43;;
9150;SDS011;4610;50.006;7.490;2022-09-29T05:29:49;6.50;;;2.77;;
9150;SDS011;4610;50.006;7.490;2022-09-29T05:32:16;6.37;;;3.00;;
9150;SDS011;4610;50.006;7.490;2022-09-29T05:34:43;7.00;;;3.07;;
9150;SDS011;4610;50.006;7.490;2022-09-29T05:37:09;5.00;;;3.30;;
9150;SDS011;4610;50.006;7.490;2022-09-29T05:39:37;4.10;;;2.40;;
9150;SDS011;4610;50.006;7.490;2022-09-29T05:42:06;5.37;;;2.23;;
9150;SDS011;4610;50.006;7.490;2022-09-29T05:44:36;4.43;;;2.30;;
9150;SDS011;4610;50.006;7.490;2022-09-29T05:47:03;2.70;;;1.77;;
9150;SDS011;4610;50.006;7.490;2022-09-29T05:49:30;2.73;;;1.80;;
9150;SDS011;4610;50.006;7.490;2022-09-29T05:51:57;6.23;;;1.90;;
9150;SDS011;4610;50.006;7.490;2022-09-29T05:54:24;1.73;;;1.60;;
9150;SDS011;4610;50.006;7.490;2022-09-29T05:56:51;4.90;;;2.10;;
9150;SDS011;4610;50.006;7.490;2022-09-29T05:59:20;5.27;;;2.10;;
9150;SDS011;4610;50.006;7.490;2022-09-29T06:01:47;5.37;;;3.23;;
9150;SDS011;4610;50.006;7.490;2022-09-29T06:04:14;5.17;;;3.90;;
9150;SDS011;4610;50.006;7.490;2022-09-29T06:06:41;7.70;;;3.80;;
9150;SDS011;4610;50.006;7.490;2022-09-29T06:09:08;4.60;;;3.10;;
9150;SDS011;4610;50.006;7.490;2022-09-29T06:11:35;9.50;;;4.87;;
9150;SDS011;4610;50.006;7.490;2022-09-29T06:14:02;12.33;;;6.30;;
9150;SDS011;4610;50.006;7.490;2022-09-29T06:16:30;8.77;;;4.90;;
9150;SDS011;4610;50.006;7.490;2022-09-29T06:18:58;7.37;;;3.87;;
9150;SDS011;4610;50.006;7.490;2022-09-29T06:21:25;6.60;;;3.77;;
9150;SDS011;4610;50.006;7.490;2022-09-29T06:23:53;2.90;;;2.60;;
9150;SDS011;4610;50.006;7.490;2022-09-29T06:26:21;2.87;;;1.90;;
9150;SDS011;4610;50.006;7.490;2022-09-29T06:28:49;11.73;;;2.47;;
9150;SDS011;4610;50.006;7.490;2022-09-29T06:31:17;17.40;;;2.93;;
9150;SDS011;4610;50.006;7.490;2022-09-29T06:33:47;22.70;;;3.37;;
9150;SDS011;4610;50.006;7.490;2022-09-29T06:36:14;23.80;;;2.97;;
9150;SDS011;4610;50.006;7.490;2022-09-29T06:39:01;12.60;;;2.90;;
9150;SDS011;4610;50.006;7.490;2022-09-29T06:41:30;3.90;;;3.07;;
9150;SDS011;4610;50.006;7.490;2022-09-29T06:43:57;3.67;;;3.27;;
9150;SDS011;4610;50.006;7.490;2022-09-29T06:46:23;4.23;;;3.20;;
9150;SDS011;4610;50.006;7.490;2022-09-29T06:48:53;6.50;;;2.90;;
9150;SDS011;4610;50.006;7.490;2022-09-29T06:51:20;4.10;;;2.83;;
9150;SDS011;4610;50.006;7.490;2022-09-29T06:53:48;6.47;;;2.73;;
9150;SDS011;4610;50.006;7.490;2022-09-29T06:56:15;4.47;;;3.30;;
9150;SDS011;4610;50.006;7.490;2022-09-29T06:58:43;7.03;;;3.50;;
9150;SDS011;4610;50.006;7.490;2022-09-29T07:01:10;11.93;;;3.40;;
9150;SDS011;4610;50.006;7.490;2022-09-29T07:03:37;5.37;;;3.00;;
9150;SDS011;4610;50.006;7.490;2022-09-29T07:06:07;4.73;;;3.13;;
9150;SDS011;4610;50.006;7.490;2022-09-29T07:08:35;5.43;;;2.47;;
9150;SDS011;4610;50.006;7.490;2022-09-29T07:11:03;4.77;;;3.20;;
9150;SDS011;4610;50.006;7.490;2022-09-29T07:13:30;6.03;;;2.80;;
9150;SDS011;4610;50.006;7.490;2022-09-29T07:16:02;3.37;;;2.70;;
9150;SDS011;4610;50.006;7.490;2022-09-29T07:18:31;4.63;;;2.93;;
9150;SDS011;4610;50.006;7.490;2022-09-29T07:20:59;7.83;;;2.50;;
9150;SDS011;4610;50.006;7.490;2022-09-29T07:23:27;3.77;;;2.30;;
9150;SDS011;4610;50.006;7.490;2022-09-29T07:25:54;3.10;;;2.27;;
9150;SDS011;4610;50.006;7.490;2022-09-29T07:28:21;2.83;;;1.90;;
9150;SDS011;4610;50.006;7.490;2022-09-29T07:30:56;3.50;;;2.03;;
9150;SDS011;4610;50.006;7.490;2022-09-29T07:33:24;2.00;;;1.80;;
9150;SDS011;4610;50.006;7.490;2022-09-29T07:35:51;2.73;;;2.10;;
9150;SDS011;4610;50.006;7.490;2022-09-29T07:38:18;2.77;;;2.07;;
9150;SDS011;4610;50.006;7.490;2022-09-29T07:40:46;2.87;;;2.10;;
9150;SDS011;4610;50.006;7.490;2022-09-29T07:43:12;3.53;;;2.30;;
9150;SDS011;4610;50.006;7.490;2022-09-29T07:45:45;4.73;;;2.27;;
9150;SDS011;4610;50.006;7.490;2022-09-29T07:48:13;2.80;;;2.00;;
9150;SDS011;4610;50.006;7.490;2022-09-29T07:50:40;2.50;;;2.13;;
9150;SDS011;4610;50.006;7.490;2022-09-29T07:53:07;2.00;;;1.63;;
9150;SDS011;4610;50.006;7.490;2022-09-29T07:55:34;2.13;;;1.70;;
9150;SDS011;4610;50.006;7.490;2022-09-29T07:58:02;3.83;;;1.97;;
9150;SDS011;4610;50.006;7.490;2022-09-29T08:00:29;2.87;;;1.90;;
9150;SDS011;4610;50.006;7.490;2022-09-29T08:03:00;2.20;;;1.80;;
9150;SDS011;4610;50.006;7.490;2022-09-29T08:05:28;17.40;;;8.90;;
9150;SDS011;4610;50.006;7.490;2022-09-29T08:07:55;14.73;;;7.83;;
9150;SDS011;4610;50.006;7.490;2022-09-29T08:10:23;18.37;;;9.40;;
9150;SDS011;4610;50.006;7.490;2022-09-29T08:12:51;12.27;;;6.33;;
9150;SDS011;4610;50.006;7.490;2022-09-29T08:15:20;10.43;;;5.80;;
9150;SDS011;4610;50.006;7.490;2022-09-29T08:17:47;7.40;;;3.80;;
9150;SDS011;4610;50.006;7.490;2022-09-29T08:20:14;4.10;;;2.80;;
9150;SDS011;4610;50.006;7.490;2022-09-29T08:22:40;3.77;;;2.40;;
9150;SDS011;4610;50.006;7.490;2022-09-29T08:25:07;3.07;;;2.00;;
9150;SDS011;4610;50.006;7.490;2022-09-29T08:27:34;3.80;;;1.77;;
9150;SDS011;4610;50.006;7.490;2022-09-29T08:30:01;3.53;;;2.10;;
9150;SDS011;4610;50.006;7.490;2022-09-29T08:32:31;4.97;;;3.40;;
9150;SDS011;4610;50.006;7.490;2022-09-29T08:34:57;5.73;;;2.67;;
9150;SDS011;4610;50.006;7.490;2022-09-29T08:37:25;4.03;;;2.47;;
9150;SDS011;4610;50.006;7.490;2022-09-29T08:39:52;4.30;;;2.20;;
9150;SDS011;4610;50.006;7.490;2022-09-29T08:42:21;6.57;;;2.87;;
9150;SDS011;4610;50.006;7.490;2022-09-29T08:44:55;6.07;;;2.20;;
9150;SDS011;4610;50.006;7.490;2022-09-29T08:47:27;3.30;;;2.30;;
9150;SDS011;4610;50.006;7.490;2022-09-29T08:49:58;2.57;;;2.00;;
9150;SDS011;4610;50.006;7.490;2022-09-29T08:52:29;2.93;;;2.30;;
9150;SDS011;4610;50.006;7.490;2022-09-29T08:55:00;2.83;;;2.10;;
9150;SDS011;4610;50.006;7.490;2022-09-29T08:57:35;5.60;;;2.13;;
9150;SDS011;4610;50.006;7.490;2022-09-29T09:00:02;11.43;;;4.30;;
9150;SDS011;4610;50.006;7.490;2022-09-29T09:02:38;3.73;;;1.93;;
9150;SDS011;4610;50.006;7.490;2022-09-29T09:05:23;3.67;;;2.13;;
9150;SDS011;4610;50.006;7.490;2022-09-29T09:08:00;1.97;;;1.50;;
9150;SDS011;4610;50.006;7.490;2022-09-29T09:10:35;2.93;;;2.20;;
9150;SDS011;4610;50.006;7.490;2022-09-29T09:13:11;3.60;;;1.80;;
9150;SDS011;4610;50.006;7.490;2022-09-29T09:15:53;6.00;;;2.40;;
9150;SDS011;4610;50.006;7.490;2022-09-29T09:21:23;7.73;;;2.50;;
9150;SDS011;4610;50.006;7.490;2022-09-29T09:23:56;4.83;;;2.20;;
9150;SDS011;4610;50.006;7.490;2022-09-29T09:26:30;3.20;;;1.97;;
9150;SDS011;4610;50.006;7.490;2022-09-29T09:29:01;6.17;;;2.03;;
9150;SDS011;4610;50.006;7.490;2022-09-29T09:31:32;3.07;;;2.10;;
9150;SDS011;4610;50.006;7.490;2022-09-29T09:34:05;5.03;;;2.00;;
9150;SDS011;4610;50.006;7.490;2022-09-29T09:36:41;2.40;;;1.80;;
9150;SDS011;4610;50.006;7.490;2022-09-29T09:39:13;6.27;;;2.57;;
9150;SDS011;4610;50.006;7.490;2022-09-29T09:41:44;4.43;;;1.67;;
9150;SDS011;4610;50.006;7.490;2022-09-29T09:44:14;3.63;;;1.70;;
9150;SDS011;4610;50.006;7.490;2022-09-29T09:46:44;5.57;;;2.10;;
9150;SDS011;4610;50.006;7.490;2022-09-29T09:49:16;3.03;;;1.43;;
9150;SDS011;4610;50.006;7.490;2022-09-29T09:51:51;3.00;;;1.67;;
9150;SDS011;4610;50.006;7.490;2022-09-29T09:54:26;2.37;;;1.50;;
9150;SDS011;4610;50.006;7.490;2022-09-29T09:57:05;3.67;;;1.73;;
9150;SDS011;4610;50.006;7.490;2022-09-29T10:00:02;3.17;;;1.53;;
9150;SDS011;4610;50.006;7.490;2022-09-29T10:02:33;6.13;;;1.73;;
9150;SDS011;4610;50.006;7.490;2022-09-29T10:05:09;3.07;;;1.50;;
9150;SDS011;4610;50.006;7.490;2022-09-29T10:07:39;5.87;;;1.57;;
9150;SDS011;4610;50.006;7.490;2022-09-29T10:10:14;2.73;;;1.70;;
9150;SDS011;4610;50.006;7.490;2022-09-29T10:12:43;3.40;;;1.60;;
9150;SDS011;4610;50.006;7.490;2022-09-29T10:15:19;5.87;;;1.77;;
9150;SDS011;4610;50.006;7.490;2022-09-29T10:17:55;2.90;;;1.50;;
9150;SDS011;4610;50.006;7.490;2022-09-29T10:20:30;4.00;;;1.47;;
9150;SDS011;4610;50.006;7.490;2022-09-29T10:23:19;5.20;;;2.00;;
9150;SDS011;4610;50.006;7.490;2022-09-29T10:25:52;5.53;;;1.53;;
9150;SDS011;4610;50.006;7.490;2022-09-29T10:28:22;4.00;;;2.00;;
9150;SDS011;4610;50.006;7.490;2022-09-29T10:30:52;2.63;;;1.77;;
9150;SDS011;4610;50.006;7.490;2022-09-29T10:33:20;3.53;;;1.37;;
9150;SDS011;4610;50.006;7.490;2022-09-29T10:35:49;2.70;;;1.60;;
9150;SDS011;4610;50.006;7.490;2022-09-29T10:38:32;3.67;;;1.50;;
9150;SDS011;4610;50.006;7.490;2022-09-29T10:41:02;4.13;;;1.43;;
9150;SDS011;4610;50.006;7.490;2022-09-29T10:43:33;2.97;;;1.70;;
9150;SDS011;4610;50.006;7.490;2022-09-29T10:46:03;8.43;;;1.27;;
9150;SDS011;4610;50.006;7.490;2022-09-29T10:48:30;4.23;;;1.40;;
9150;SDS011;4610;50.006;7.490;2022-09-29T10:50:57;5.60;;;2.17;;
9150;SDS011;4610;50.006;7.490;2022-09-29T10:53:34;4.57;;;1.53;;
9150;SDS011;4610;50.006;7.490;2022-09-29T10:56:07;2.30;;;1.50;;
9150;SDS011;4610;50.006;7.490;2022-09-29T10:58:41;5.60;;;1.80;;
9150;SDS011;4610;50.006;7.490;2022-09-29T11:01:11;5.63;;;2.13;;
9150;SDS011;4610;50.006;7.490;2022-09-29T11:03:40;7.27;;;1.70;;
9150;SDS011;4610;50.006;7.490;2022-09-29T11:06:13;7.40;;;1.63;;
9150;SDS011;4610;50.006;7.490;2022-09-29T11:08:55;4.80;;;1.60;;
9150;SDS011;4610;50.006;7.490;2022-09-29T11:11:24;3.20;;;2.00;;
9150;SDS011;4610;50.006;7.490;2022-09-29T11:13:52;2.87;;;1.47;;
9150;SDS011;4610;50.006;7.490;2022-09-29T11:16:24;5.00;;;1.50;;
9150;SDS011;4610;50.006;7.490;2022-09-29T11:18:54;3.23;;;1.60;;
9150;SDS011;4610;50.006;7.490;2022-09-29T11:21:33;6.03;;;1.80;;
9150;SDS011;4610;50.006;7.490;2022-09-29T11:24:35;7.47;;;2.00;;
9150;SDS011;4610;50.006;7.490;2022-09-29T11:27:14;8.13;;;2.03;;
9150;SDS011;4610;50.006;7.490;2022-09-29T11:29:54;4.10;;;1.30;;
9150;SDS011;4610;50.006;7.490;2022-09-29T11:32:32;4.63;;;1.77;;
9150;SDS011;4610;50.006;7.490;2022-09-29T11:35:16;5.47;;;1.60;;
9150;SDS011;4610;50.006;7.490;2022-09-29T11:40:52;3.87;;;1.37;;
9150;SDS011;4610;50.006;7.490;2022-09-29T11:43:29;4.83;;;1.63;;
9150;SDS011;4610;50.006;7.490;2022-09-29T11:46:05;4.20;;;1.60;;
9150;SDS011;4610;50.006;7.490;2022-09-29T11:48:47;6.83;;;1.40;;
9150;SDS011;4610;50.006;7.490;2022-09-29T11:51:36;4.50;;;1.40;;
9150;SDS011;4610;50.006;7.490;2022-09-29T11:54:20;7.43;;;1.63;;
9150;SDS011;4610;50.006;7.490;2022-09-29T11:57:02;3.27;;;1.30;;
9150;SDS011;4610;50.006;7.490;2022-09-29T11:59:44;5.43;;;1.53;;
9150;SDS011;4610;50.006;7.490;2022-09-29T12:02:32;6.57;;;1.93;;
9150;SDS011;4610;50.006;7.490;2022-09-29T12:05:24;3.57;;;1.10;;
9150;SDS011;4610;50.006;7.490;2022-09-29T12:08:01;3.03;;;1.30;;
9150;SDS011;4610;50.006;7.490;2022-09-29T12:10:36;2.43;;;1.10;;
9150;SDS011;4610;50.006;7.490;2022-09-29T12:13:16;5.13;;;1.50;;
9150;SDS011;4610;50.006;7.490;2022-09-29T12:15:54;2.53;;;1.47;;
9150;SDS011;4610;50.006;7.490;2022-09-29T12:18:24;8.80;;;1.40;;
9150;SDS011;4610;50.006;7.490;2022-09-29T12:20:56;2.93;;;1.13;;
9150;SDS011;4610;50.006;7.490;2022-09-29T12:23:25;3.00;;;1.60;;
9150;SDS011;4610;50.006;7.490;2022-09-29T12:25:58;2.40;;;1.50;;
9150;SDS011;4610;50.006;7.490;2022-09-29T12:28:34;4.27;;;1.70;;
9150;SDS011;4610;50.006;7.490;2022-09-29T12:31:08;2.97;;;1.40;;
9150;SDS011;4610;50.006;7.490;2022-09-29T12:33:40;4.07;;;1.70;;
9150;SDS011;4610;50.006;7.490;2022-09-29T12:36:17;4.40;;;1.50;;
9150;SDS011;4610;50.006;7.490;2022-09-29T12:39:12;8.60;;;1.20;;
9150;SDS011;4610;50.006;7.490;2022-09-29T12:41:59;4.53;;;1.20;;
9150;SDS011;4610;50.006;7.490;2022-09-29T12:44:41;3.07;;;1.30;;
9150;SDS011;4610;50.006;7.490;2022-09-29T12:47:14;3.53;;;1.33;;
9150;SDS011;4610;50.006;7.490;2022-09-29T12:49:52;4.07;;;1.30;;
9150;SDS011;4610;50.006;7.490;2022-09-29T12:52:28;2.20;;;1.20;;
9150;SDS011;4610;50.006;7.490;2022-09-29T12:55:00;3.70;;;1.23;;
9150;SDS011;4610;50.006;7.490;2022-09-29T12:57:31;4.37;;;1.30;;
9150;SDS011;4610;50.006;7.490;2022-09-29T13:00:04;4.97;;;1.47;;
9150;SDS011;4610;50.006;7.490;2022-09-29T13:02:42;5.00;;;1.60;;
9150;SDS011;4610;50.006;7.490;2022-09-29T13:05:31;2.10;;;1.00;;
9150;SDS011;4610;50.006;7.490;2022-09-29T13:08:35;2.60;;;1.20;;
9150;SDS011;4610;50.006;7.490;2022-09-29T13:11:26;3.27;;;1.20;;
9150;SDS011;4610;50.006;7.490;2022-09-29T13:14:13;5.07;;;1.10;;
9150;SDS011;4610;50.006;7.490;2022-09-29T13:16:54;4.47;;;1.30;;
9150;SDS011;4610;50.006;7.490;2022-09-29T13:19:39;3.97;;;1.30;;
9150;SDS011;4610;50.006;7.490;2022-09-29T13:25:14;5.27;;;1.40;;
9150;SDS011;4610;50.006;7.490;2022-09-29T13:27:47;3.90;;;1.30;;
9150;SDS011;4610;50.006;7.490;2022-09-29T13:30:16;3.73;;;1.10;;
9150;SDS011;4610;50.006;7.490;2022-09-29T13:32:47;2.93;;;1.50;;
9150;SDS011;4610;50.006;7.490;2022-09-29T13:35:17;6.57;;;1.37;;
9150;SDS011;4610;50.006;7.490;2022-09-29T13:37:49;2.00;;;1.10;;
9150;SDS011;4610;50.006;7.490;2022-09-29T13:40:19;2.97;;;1.10;;
9150;SDS011;4610;50.006;7.490;2022-09-29T13:42:48;3.03;;;1.30;;
9150;SDS011;4610;50.006;7.490;2022-09-29T13:51:22;3.03;;;1.10;;
9150;SDS011;4610;50.006;7.490;2022-09-29T13:57:04;1.10;;;1.00;;
9150;SDS011;4610;50.006;7.490;2022-09-29T14:02:45;4.40;;;1.30;;
9150;SDS011;4610;50.006;7.490;2022-09-29T14:08:10;1.97;;;1.10;;
9150;SDS011;4610;50.006;7.490;2022-09-29T14:10:41;2.03;;;1.33;;
9150;SDS011;4610;50.006;7.490;2022-09-29T14:13:13;3.10;;;1.37;;
9150;SDS011;4610;50.006;7.490;2022-09-29T14:15:46;2.53;;;1.23;;
9150;SDS011;4610;50.006;7.490;2022-09-29T14:18:33;2.63;;;1.27;;
9150;SDS011;4610;50.006;7.490;2022-09-29T14:21:04;4.27;;;1.30;;
9150;SDS011;4610;50.006;7.490;2022-09-29T14:23:47;4.37;;;1.20;;
9150;SDS011;4610;50.006;7.490;2022-09-29T14:29:10;8.20;;;1.50;;
9150;SDS011;4610;50.006;7.490;2022-09-29T14:31:42;4.40;;;1.57;;
9150;SDS011;4610;50.006;7.490;2022-09-29T14:34:11;6.07;;;2.50;;
9150;SDS011;4610;50.006;7.490;2022-09-29T14:36:41;1.50;;;1.20;;
9150;SDS011;4610;50.006;7.490;2022-09-29T14:39:12;2.70;;;1.10;;
9150;SDS011;4610;50.006;7.490;2022-09-29T14:41:40;3.90;;;1.47;;
9150;SDS011;4610;50.006;7.490;2022-09-29T14:44:09;3.80;;;1.47;;
9150;SDS011;4610;50.006;7.490;2022-09-29T14:46:49;3.20;;;1.40;;
9150;SDS011;4610;50.006;7.490;2022-09-29T14:49:57;3.23;;;1.60;;
9150;SDS011;4610;50.006;7.490;2022-09-29T14:53:01;3.73;;;1.90;;
9150;SDS011;4610;50.006;7.490;2022-09-29T14:55:41;3.03;;;1.60;;
9150;SDS011;4610;50.006;7.490;2022-09-29T14:58:23;2.67;;;1.33;;
9150;SDS011;4610;50.006;7.490;2022-09-29T15:00:59;4.07;;;1.50;;
9150;SDS011;4610;50.006;7.490;2022-09-29T15:03:37;2.30;;;1.20;;
9150;SDS011;4610;50.006;7.490;2022-09-29T15:06:11;4.40;;;1.30;;
9150;SDS011;4610;50.006;7.490;2022-09-29T15:08:39;2.10;;;1.30;;
9150;SDS011;4610;50.006;7.490;2022-09-29T15:11:22;3.30;;;1.37;;
9150;SDS011;4610;50.006;7.490;2022-09-29T15:13:54;1.43;;;1.20;;
9150;SDS011;4610;50.006;7.490;2022-09-29T15:16:23;4.40;;;1.67;;
9150;SDS011;4610;50.006;7.490;2022-09-29T15:21:54;2.87;;;1.33;;
9150;SDS011;4610;50.006;7.490;2022-09-29T15:27:27;2.23;;;1.20;;
9150;SDS011;4610;50.006;7.490;2022-09-29T15:29:54;3.50;;;1.73;;
9150;SDS011;4610;50.006;7.490;2022-09-29T15:32:23;4.47;;;2.53;;
9150;SDS011;4610;50.006;7.490;2022-09-29T15:34:52;3.00;;;1.90;;
9150;SDS011;4610;50.006;7.490;2022-09-29T15:37:36;5.03;;;1.63;;
9150;SDS011;4610;50.006;7.490;2022-09-29T15:40:24;2.73;;;1.37;;
9150;SDS011;4610;50.006;7.490;2022-09-29T15:42:53;2.90;;;1.60;;
9150;SDS011;4610;50.006;7.490;2022-09-29T15:45:21;6.93;;;1.50;;
9150;SDS011;4610;50.006;7.490;2022-09-29T15:47:57;2.07;;;1.20;;
9150;SDS011;4610;50.006;7.490;2022-09-29T15:50:26;4.47;;;1.83;;
9150;SDS011;4610;50.006;7.490;2022-09-29T15:52:57;2.17;;;1.30;;
9150;SDS011;4610;50.006;7.490;2022-09-29T15:55:26;3.90;;;1.67;;
9150;SDS011;4610;50.006;7.490;2022-09-29T15:57:56;3.40;;;1.40;;
9150;SDS011;4610;50.006;7.490;2022-09-29T16:03:24;1.90;;;1.40;;
9150;SDS011;4610;50.006;7.490;2022-09-29T16:06:05;2.63;;;1.40;;
9150;SDS011;4610;50.006;7.490;2022-09-29T16:08:39;8.23;;;1.70;;
9150;SDS011;4610;50.006;7.490;2022-09-29T16:11:14;2.23;;;1.70;;
9150;SDS011;4610;50.006;7.490;2022-09-29T16:13:47;4.13;;;1.13;;
9150;SDS011;4610;50.006;7.490;2022-09-29T16:16:18;4.30;;;1.67;;
9150;SDS011;4610;50.006;7.490;2022-09-29T16:18:52;3.27;;;1.27;;
9150;SDS011;4610;50.006;7.490;2022-09-29T16:21:25;2.83;;;1.20;;
9150;SDS011;4610;50.006;7.490;2022-09-29T16:24:03;7.40;;;1.30;;